Time;durP1;ratioP1;P1;durP2;ratioP2;P2;SDS_P1;SDS_P2;PMS_P1;PMS_P2;Temp;Humidity;BMP_temperature;BMP_pressure;BME280_temperature;BME280_humidity;BME280_pressure;Samples;Min_cycle;Max_cycle;Signal;HPM_P1;HPM_P2
2021/12/14 00:00:37;;;;;;;11.38;7.88;;;9.40;99.90;;;;;;5088388;28;20052;-86
2021/12/14 00:03:03;;;;;;;12.27;8.60;;;9.40;99.90;;;;;;5072935;28;20094;-83
2021/12/14 00:05:30;;;;;;;11.02;9.05;;;9.40;99.90;;;;;;5088578;28;20028;-83
2021/12/14 00:08:01;;;;;;;13.38;9.45;;;9.40;99.90;;;;;;5058894;28;20116;-85
2021/12/14 00:13:27;;;;;;;10.02;7.55;;;9.40;99.90;;;;;;5080604;28;20040;-83
2021/12/14 00:15:55;;;;;;;12.10;8.95;;;9.40;99.90;;;;;;5083147;28;20086;-83
2021/12/14 00:18:21;;;;;;;12.00;8.38;;;9.40;99.90;;;;;;5070019;28;20388;-85
2021/12/14 00:20:53;;;;;;;11.35;8.75;;;9.50;99.90;;;;;;5077359;28;20483;-86
2021/12/14 00:26:07;;;;;;;13.50;9.88;;;9.50;99.90;;;;;;5090087;28;20040;-84
2021/12/14 00:28:34;;;;;;;12.05;9.60;;;9.40;99.90;;;;;;5060016;28;20028;-84
2021/12/14 00:31:04;;;;;;;12.93;9.27;;;9.50;99.90;;;;;;5087377;28;20032;-84
2021/12/14 00:33:34;;;;;;;12.07;9.40;;;9.50;99.90;;;;;;5090317;28;20021;-84
2021/12/14 00:36:02;;;;;;;12.00;9.48;;;9.50;99.90;;;;;;5075976;28;20119;-83
2021/12/14 00:38:29;;;;;;;12.52;9.30;;;9.50;99.90;;;;;;5077010;28;20016;-84
2021/12/14 00:40:59;;;;;;;13.68;9.85;;;9.50;99.90;;;;;;5075443;28;20049;-84
2021/12/14 00:43:25;;;;;;;12.45;10.07;;;9.50;99.90;;;;;;5082324;28;20103;-84
2021/12/14 00:45:52;;;;;;;13.30;9.85;;;9.50;99.90;;;;;;5087881;28;20461;-84
2021/12/14 00:48:19;;;;;;;13.60;9.90;;;9.50;99.90;;;;;;5092201;28;20115;-84
2021/12/14 00:50:49;;;;;;;12.80;10.05;;;9.50;99.90;;;;;;5078876;28;20021;-83
2021/12/14 00:53:15;;;;;;;13.35;10.20;;;9.50;99.90;;;;;;5089756;28;20445;-84
2021/12/14 00:55:44;;;;;;;13.10;9.85;;;9.50;99.90;;;;;;5091430;28;20023;-84
2021/12/14 00:58:11;;;;;;;13.57;10.38;;;9.50;99.90;;;;;;5080753;28;20017;-84
2021/12/14 01:00:45;;;;;;;14.60;10.70;;;9.50;99.90;;;;;;5062672;28;20361;-84
2021/12/14 01:03:11;;;;;;;15.57;10.10;;;9.40;99.90;;;;;;5084756;28;20111;-82
2021/12/14 01:05:42;;;;;;;13.63;10.35;;;9.40;99.90;;;;;;5094196;28;20020;-82
2021/12/14 01:08:11;;;;;;;13.60;10.23;;;9.40;99.90;;;;;;5094217;28;20021;-82
2021/12/14 01:10:47;;;;;;;12.70;10.95;;;9.40;99.90;;;;;;5089187;28;20024;-82
2021/12/14 01:13:14;;;;;;;12.85;10.48;;;9.40;99.90;;;;;;5078257;28;20456;-82
2021/12/14 01:21:01;;;;;;;13.60;10.48;;;9.40;99.90;;;;;;5080837;28;20466;-84
2021/12/14 01:23:32;;;;;;;13.65;10.43;;;9.40;99.90;;;;;;5084126;28;20020;-84
2021/12/14 01:26:08;;;;;;;15.05;10.85;;;9.40;99.90;;;;;;5079845;28;20028;-83
2021/12/14 01:28:34;;;;;;;16.70;11.23;;;9.40;99.90;;;;;;5094849;28;20050;-84
2021/12/14 01:31:14;;;;;;;16.40;12.02;;;9.40;99.90;;;;;;5074821;28;20055;-83
2021/12/14 01:33:45;;;;;;;14.13;10.85;;;9.40;99.90;;;;;;5077252;28;20095;-82
2021/12/14 01:36:25;;;;;;;15.30;11.05;;;9.40;99.90;;;;;;5086294;28;20103;-84
2021/12/14 01:42:09;;;;;;;14.88;11.40;;;9.30;99.90;;;;;;5060174;28;20352;-84
2021/12/14 01:44:42;;;;;;;13.90;10.95;;;9.30;99.90;;;;;;5073781;28;20037;-83
2021/12/14 01:47:15;;;;;;;17.80;11.95;;;9.30;99.90;;;;;;5116111;27;20048;-83
2021/12/14 01:49:41;;;;;;;15.57;11.35;;;9.30;99.90;;;;;;5074348;28;20043;-84
2021/12/14 01:52:13;;;;;;;14.18;11.32;;;9.30;99.90;;;;;;5082551;28;20029;-83
2021/12/14 01:54:49;;;;;;;15.73;11.50;;;9.30;99.90;;;;;;5078740;28;20039;-85
2021/12/14 01:57:18;;;;;;;15.77;11.50;;;9.30;99.90;;;;;;5089735;28;20591;-83
2021/12/14 01:59:47;;;;;;;15.32;11.52;;;9.30;99.90;;;;;;5077882;28;20022;-83
2021/12/14 02:02:34;;;;;;;18.02;11.82;;;9.20;99.90;;;;;;5074471;28;20043;-83
2021/12/14 02:05:07;;;;;;;15.50;12.00;;;9.20;99.90;;;;;;5073998;28;20103;-83
2021/12/14 02:07:33;;;;;;;12.88;10.88;;;9.20;99.90;;;;;;5076695;28;20465;-83
2021/12/14 02:10:06;;;;;;;15.40;10.85;;;9.10;99.90;;;;;;5064850;28;20039;-83
2021/12/14 02:12:32;;;;;;;15.13;11.63;;;9.20;99.90;;;;;;5079831;28;20024;-86
2021/12/14 02:15:10;;;;;;;15.48;11.50;;;9.20;99.90;;;;;;5059882;28;20182;-83
2021/12/14 02:17:39;;;;;;;14.70;10.52;;;9.20;99.90;;;;;;5085078;28;20032;-91
2021/12/14 02:20:07;;;;;;;15.52;11.07;;;9.20;99.90;;;;;;5073663;28;20025;-86
2021/12/14 02:22:33;;;;;;;15.82;11.63;;;9.20;99.90;;;;;;5061051;28;20032;-82
2021/12/14 02:24:59;;;;;;;17.52;11.25;;;9.20;99.90;;;;;;5077259;28;20526;-83
2021/12/14 02:27:43;;;;;;;15.75;11.85;;;9.20;99.90;;;;;;5077745;28;20025;-83
2021/12/14 02:30:23;;;;;;;15.68;12.32;;;9.20;99.90;;;;;;5083438;28;20025;-84
2021/12/14 02:32:49;;;;;;;16.60;11.60;;;9.20;99.90;;;;;;5081850;28;20043;-83
2021/12/14 02:35:19;;;;;;;16.63;12.13;;;9.20;99.90;;;;;;5064615;28;20028;-84
2021/12/14 02:37:52;;;;;;;16.80;11.97;;;9.20;99.90;;;;;;5078607;28;20024;-83
2021/12/14 02:43:22;;;;;;;19.13;13.50;;;9.20;99.90;;;;;;5079704;28;20195;-82
2021/12/14 02:45:47;;;;;;;16.58;12.95;;;9.20;99.90;;;;;;5081415;28;20048;-83
2021/12/14 02:48:13;;;;;;;17.25;13.23;;;9.20;99.90;;;;;;5085954;28;20075;-83
2021/12/14 02:50:39;;;;;;;16.55;12.57;;;9.20;99.90;;;;;;5078742;28;20437;-88
2021/12/14 02:53:05;;;;;;;16.35;12.48;;;9.20;99.90;;;;;;5073579;28;20120;-84
2021/12/14 02:55:32;;;;;;;17.10;13.30;;;9.20;99.90;;;;;;5073847;28;20107;-83
2021/12/14 02:58:05;;;;;;;17.08;13.13;;;9.20;99.90;;;;;;5073820;28;20456;-83
2021/12/14 03:00:33;;;;;;;16.73;13.55;;;9.20;99.90;;;;;;5094434;28;20388;-84
2021/12/14 03:03:02;;;;;;;17.50;13.27;;;9.20;99.90;;;;;;5077174;28;20662;-83
2021/12/14 03:05:35;;;;;;;17.33;13.82;;;9.10;99.90;;;;;;5081497;28;20471;-83
2021/12/14 03:08:07;;;;;;;17.63;13.27;;;9.10;99.90;;;;;;5078692;28;20032;-83
2021/12/14 03:10:59;;;;;;;18.50;14.05;;;9.10;99.90;;;;;;5090513;28;20131;-83
2021/12/14 03:13:31;;;;;;;18.42;13.30;;;9.10;99.90;;;;;;5073753;28;20059;-83
2021/12/14 03:16:02;;;;;;;18.20;13.30;;;9.10;99.90;;;;;;5093036;28;20024;-82
2021/12/14 03:18:36;;;;;;;20.15;14.02;;;9.10;99.90;;;;;;5084308;28;20020;-83
2021/12/14 03:21:08;;;;;;;18.85;13.57;;;9.10;99.90;;;;;;5090906;28;20032;-89
2021/12/14 03:23:38;;;;;;;19.58;13.93;;;9.10;99.90;;;;;;5089617;28;20024;-83
2021/12/14 03:26:08;;;;;;;20.27;14.98;;;9.20;99.90;;;;;;5089296;28;20029;-83
2021/12/14 03:28:36;;;;;;;19.00;14.13;;;9.10;99.90;;;;;;5076503;28;20027;-83
2021/12/14 03:31:01;;;;;;;19.80;15.15;;;9.10;99.90;;;;;;5117786;27;20024;-87
2021/12/14 03:33:33;;;;;;;19.60;14.73;;;9.20;99.90;;;;;;5088920;28;20115;-83
2021/12/14 03:36:12;;;;;;;20.27;14.35;;;9.10;99.90;;;;;;5089353;28;20025;-83
2021/12/14 03:38:37;;;;;;;19.73;14.55;;;9.20;99.90;;;;;;5077621;28;20027;-82
2021/12/14 03:41:07;;;;;;;18.35;14.27;;;9.20;99.90;;;;;;5093556;28;20388;-82
2021/12/14 03:43:34;;;;;;;18.83;14.57;;;9.20;99.90;;;;;;5073696;28;20045;-83
2021/12/14 03:46:01;;;;;;;19.83;14.27;;;9.20;99.90;;;;;;5086431;28;20079;-83
2021/12/14 03:48:30;;;;;;;18.63;13.95;;;9.20;99.90;;;;;;5060191;28;20124;-83
2021/12/14 03:50:56;;;;;;;19.27;14.07;;;9.20;99.90;;;;;;5087800;28;20062;-83
2021/12/14 03:53:23;;;;;;;21.58;14.60;;;9.20;99.90;;;;;;5082219;28;20491;-83
2021/12/14 03:55:58;;;;;;;19.88;14.95;;;9.20;99.90;;;;;;5093285;28;20085;-83
2021/12/14 03:58:30;;;;;;;19.25;13.82;;;9.20;99.90;;;;;;5083972;28;20035;-83
2021/12/14 04:01:05;;;;;;;18.77;13.50;;;9.20;99.90;;;;;;5084715;28;20476;-82
2021/12/14 04:03:31;;;;;;;19.52;14.38;;;9.20;99.90;;;;;;5076186;28;20090;-83
2021/12/14 04:05:58;;;;;;;17.73;13.90;;;9.20;99.90;;;;;;5076596;28;20126;-83
2021/12/14 04:08:27;;;;;;;19.63;14.27;;;9.20;99.90;;;;;;5063031;28;20024;-83
2021/12/14 04:10:55;;;;;;;20.50;14.93;;;9.20;99.90;;;;;;5089277;28;20095;-83
2021/12/14 04:13:25;;;;;;;17.75;13.80;;;9.20;99.90;;;;;;5063049;28;20024;-83
2021/12/14 04:15:52;;;;;;;18.60;14.77;;;9.20;99.90;;;;;;5076370;28;20016;-83
2021/12/14 04:18:19;;;;;;;19.08;14.30;;;9.20;99.90;;;;;;5090236;28;20086;-84
2021/12/14 04:20:47;;;;;;;18.70;13.77;;;9.20;99.90;;;;;;5089284;28;20141;-83
2021/12/14 04:23:22;;;;;;;18.08;14.05;;;9.20;99.90;;;;;;5075594;28;20025;-83
2021/12/14 04:25:49;;;;;;;22.30;14.68;;;9.20;99.90;;;;;;5082094;28;20030;-83
2021/12/14 04:28:19;;;;;;;19.38;14.00;;;9.10;99.90;;;;;;5073767;28;20035;-82
2021/12/14 04:30:46;;;;;;;20.05;13.88;;;9.10;99.90;;;;;;5087682;28;20024;-85
2021/12/14 04:33:16;;;;;;;19.23;13.50;;;9.10;99.90;;;;;;5092492;28;20024;-83
2021/12/14 04:35:44;;;;;;;17.75;13.18;;;9.00;99.90;;;;;;5083503;28;20024;-85
2021/12/14 04:38:18;;;;;;;19.38;12.70;;;9.00;99.90;;;;;;5088565;28;20046;-83
2021/12/14 04:51:58;;;;;;;17.20;11.30;;;9.10;99.90;;;;;;5088406;28;20121;-83
2021/12/14 04:54:26;;;;;;;18.60;11.82;;;9.10;99.90;;;;;;5113021;28;20056;-83
2021/12/14 04:56:52;;;;;;;18.20;12.68;;;9.10;99.90;;;;;;5080283;28;20476;-85
2021/12/14 04:59:25;;;;;;;19.58;12.50;;;9.00;99.90;;;;;;5076606;28;20099;-82
2021/12/14 05:01:54;;;;;;;17.05;12.38;;;9.10;99.90;;;;;;5090636;28;20055;-82
2021/12/14 05:04:24;;;;;;;17.33;12.30;;;9.00;99.90;;;;;;5117945;28;20392;-84
2021/12/14 05:06:57;;;;;;;16.38;10.98;;;9.00;99.90;;;;;;5086883;28;20044;-86
2021/12/14 05:09:29;;;;;;;16.77;11.55;;;9.00;99.90;;;;;;5087781;28;20086;-83
2021/12/14 05:12:06;;;;;;;15.88;11.13;;;9.00;99.90;;;;;;5088368;28;20421;-84
2021/12/14 05:14:35;;;;;;;15.05;11.23;;;9.00;99.90;;;;;;5091729;28;20028;-84
2021/12/14 05:17:08;;;;;;;14.48;10.90;;;9.00;99.90;;;;;;5081306;28;20479;-83
2021/12/14 05:19:38;;;;;;;14.27;10.57;;;9.10;99.90;;;;;;5071314;28;20032;-83
2021/12/14 05:22:21;;;;;;;15.60;10.97;;;9.00;99.90;;;;;;5083799;28;20028;-83
2021/12/14 05:24:52;;;;;;;13.82;10.13;;;9.00;99.90;;;;;;5089059;28;20099;-87
2021/12/14 05:27:25;;;;;;;14.90;10.60;;;9.00;99.90;;;;;;5091713;28;20475;-84
2021/12/14 05:29:52;;;;;;;14.93;10.40;;;9.00;99.90;;;;;;5077699;28;20100;-83
2021/12/14 05:32:19;;;;;;;17.73;10.88;;;9.00;99.90;;;;;;5080211;28;20028;-83
2021/12/14 05:34:49;;;;;;;17.75;10.80;;;9.00;99.90;;;;;;5074310;28;20024;-82
2021/12/14 05:37:26;;;;;;;15.10;10.80;;;9.00;99.90;;;;;;5076418;28;20020;-82
2021/12/14 05:40:00;;;;;;;15.63;10.38;;;9.00;99.90;;;;;;5109513;28;20118;-83
2021/12/14 05:45:16;;;;;;;14.93;10.10;;;8.90;99.90;;;;;;5081156;28;20090;-83
2021/12/14 05:47:53;;;;;;;15.65;10.50;;;8.90;99.90;;;;;;5076990;28;20024;-83
2021/12/14 05:50:49;;;;;;;19.02;11.05;;;9.00;99.90;;;;;;5078869;28;20468;-83
2021/12/14 05:53:40;;;;;;;16.95;10.40;;;9.00;99.90;;;;;;5089915;28;20035;-83
2021/12/14 05:56:20;;;;;;;15.43;10.45;;;8.90;99.90;;;;;;5117441;27;20032;-84
2021/12/14 05:58:47;;;;;;;16.00;10.25;;;8.90;99.90;;;;;;5077619;28;20066;-83
2021/12/14 06:01:17;;;;;;;15.15;10.23;;;8.90;99.90;;;;;;5084555;28;20073;-83
2021/12/14 06:03:53;;;;;;;16.05;10.60;;;8.90;99.90;;;;;;5077391;28;20052;-83
2021/12/14 06:06:33;;;;;;;16.52;10.85;;;8.90;99.90;;;;;;5074678;28;20028;-83
2021/12/14 06:09:07;;;;;;;16.55;9.68;;;8.90;99.90;;;;;;5062252;28;20059;-85
2021/12/14 06:11:33;;;;;;;17.23;11.68;;;8.90;99.90;;;;;;5074599;28;20060;-84
2021/12/14 06:13:58;;;;;;;15.38;10.98;;;8.80;99.90;;;;;;5077366;28;20050;-85
2021/12/14 06:16:36;;;;;;;17.50;11.30;;;8.90;99.90;;;;;;5082919;28;20013;-80
2021/12/14 06:19:19;;;;;;;17.58;10.98;;;8.90;99.90;;;;;;5075125;28;20238;-83
2021/12/14 06:21:54;;;;;;;21.60;12.23;;;8.90;99.90;;;;;;5112396;27;20053;-84
2021/12/14 06:24:23;;;;;;;17.27;11.23;;;8.90;99.90;;;;;;5079959;28;20432;-83
2021/12/14 06:26:52;;;;;;;18.73;11.23;;;8.90;99.90;;;;;;5074979;28;20024;-83
2021/12/14 06:29:26;;;;;;;18.90;12.00;;;8.90;99.90;;;;;;5082703;28;20464;-83
2021/12/14 06:31:53;;;;;;;19.70;11.63;;;8.90;99.90;;;;;;5080636;28;20039;-82
2021/12/14 06:34:28;;;;;;;16.77;11.35;;;8.90;99.90;;;;;;5067828;28;20028;-85
2021/12/14 06:37:29;;;;;;;16.90;11.88;;;8.90;99.90;;;;;;5075542;28;20095;-82
2021/12/14 06:40:20;;;;;;;20.42;12.15;;;8.90;99.90;;;;;;5075457;28;20048;-83
2021/12/14 06:42:54;;;;;;;19.63;12.70;;;8.90;99.90;;;;;;5086843;28;20138;-84
2021/12/14 06:45:47;;;;;;;19.23;13.00;;;8.90;99.90;;;;;;5086666;28;20031;-84
2021/12/14 06:48:20;;;;;;;19.70;13.15;;;8.90;99.90;;;;;;5085006;28;20032;-84
2021/12/14 06:50:53;;;;;;;21.35;13.52;;;8.90;99.90;;;;;;5077059;28;20024;-83
2021/12/14 06:53:20;;;;;;;20.27;13.05;;;8.80;99.90;;;;;;5073530;28;20028;-83
2021/12/14 06:55:50;;;;;;;21.85;13.93;;;8.80;99.90;;;;;;5057179;28;20033;-82
2021/12/14 06:58:21;;;;;;;21.15;13.40;;;8.80;99.90;;;;;;5090498;28;20032;-86
2021/12/14 07:01:07;;;;;;;25.38;14.57;;;8.90;99.90;;;;;;5083581;28;20468;-82
2021/12/14 07:07:06;;;;;;;21.13;13.93;;;8.80;99.90;;;;;;5114103;28;20055;-84
2021/12/14 07:09:46;;;;;;;20.48;13.90;;;8.90;99.90;;;;;;5095981;28;20048;-86
2021/12/14 07:12:22;;;;;;;22.70;14.20;;;8.90;99.90;;;;;;5105070;28;20035;-84
2021/12/14 07:14:52;;;;;;;24.17;15.20;;;8.90;99.90;;;;;;5113150;28;20031;-84
2021/12/14 07:17:27;;;;;;;21.67;14.77;;;8.80;99.90;;;;;;5102311;28;20020;-84
2021/12/14 07:20:25;;;;;;;21.25;15.13;;;8.90;99.90;;;;;;5088046;28;20020;-84
2021/12/14 07:23:04;;;;;;;22.30;15.13;;;8.80;99.90;;;;;;5076141;28;20436;-83
2021/12/14 07:25:33;;;;;;;23.98;15.75;;;8.80;99.90;;;;;;5081234;28;20069;-84
2021/12/14 07:28:06;;;;;;;21.92;15.50;;;8.80;99.90;;;;;;5088696;28;20381;-84
2021/12/14 07:30:38;;;;;;;23.02;15.50;;;8.80;99.90;;;;;;5088856;28;20499;-84
2021/12/14 07:33:12;;;;;;;26.75;15.68;;;8.90;99.90;;;;;;5079625;28;20032;-85
2021/12/14 07:35:49;;;;;;;22.20;14.63;;;8.80;99.90;;;;;;5075853;28;20016;-83
2021/12/14 07:38:14;;;;;;;25.08;16.08;;;8.80;99.90;;;;;;5086536;28;20134;-84
2021/12/14 07:40:42;;;;;;;26.45;17.20;;;8.80;99.90;;;;;;5077001;28;20488;-83
2021/12/14 07:43:37;;;;;;;25.63;16.50;;;8.80;99.90;;;;;;5088247;28;20049;-89
2021/12/14 07:46:36;;;;;;;23.80;16.73;;;8.80;99.90;;;;;;5071921;28;20060;-84
2021/12/14 07:49:01;;;;;;;26.42;17.42;;;8.80;99.90;;;;;;5085791;28;20032;-86
2021/12/14 07:51:30;;;;;;;24.95;15.32;;;8.80;99.90;;;;;;5081520;28;20465;-84
2021/12/14 07:54:04;;;;;;;27.02;16.75;;;8.90;99.90;;;;;;5083690;28;20081;-84
2021/12/14 07:56:34;;;;;;;28.02;17.02;;;8.80;99.90;;;;;;5081662;28;20031;-83
2021/12/14 07:59:01;;;;;;;26.98;17.40;;;8.80;99.90;;;;;;5089222;28;20020;-84
2021/12/14 08:01:28;;;;;;;26.67;17.15;;;8.80;99.90;;;;;;5071023;28;20106;-83
2021/12/14 08:04:03;;;;;;;27.80;17.17;;;8.80;99.90;;;;;;5066887;28;20185;-84
2021/12/14 08:06:54;;;;;;;26.65;16.90;;;8.80;99.90;;;;;;5091574;28;20102;-84
2021/12/14 08:09:49;;;;;;;24.58;16.60;;;8.90;99.90;;;;;;5093456;28;20041;-84
2021/12/14 08:12:29;;;;;;;28.27;18.48;;;8.80;99.90;;;;;;5091918;28;20020;-82
2021/12/14 08:15:12;;;;;;;28.70;18.38;;;8.80;99.90;;;;;;5079573;28;20035;-83
2021/12/14 08:17:39;;;;;;;27.10;17.85;;;8.80;99.90;;;;;;5072289;28;20031;-83
2021/12/14 08:20:12;;;;;;;29.15;18.75;;;8.80;99.90;;;;;;5072140;28;20020;-85
2021/12/14 08:22:41;;;;;;;25.17;17.42;;;8.80;99.90;;;;;;5072232;28;20036;-82
2021/12/14 08:25:10;;;;;;;27.73;18.65;;;8.80;99.90;;;;;;5055365;28;20071;-81
2021/12/14 08:27:37;;;;;;;29.88;19.38;;;8.80;99.90;;;;;;5072623;28;20395;-81
2021/12/14 08:30:11;;;;;;;29.23;18.40;;;8.80;99.90;;;;;;5072095;28;20028;-81
2021/12/14 08:32:39;;;;;;;30.00;19.05;;;8.80;99.90;;;;;;5073416;28;20035;-81
2021/12/14 08:35:10;;;;;;;30.00;20.10;;;8.80;99.90;;;;;;5072690;28;20032;-81
2021/12/14 08:37:42;;;;;;;28.48;18.65;;;8.80;99.90;;;;;;5072220;28;20028;-81
2021/12/14 08:40:38;;;;;;;30.45;19.15;;;8.80;99.90;;;;;;5072681;28;20020;-82
2021/12/14 08:43:23;;;;;;;28.75;18.48;;;8.80;99.90;;;;;;5066303;28;20040;-82
2021/12/14 08:46:01;;;;;;;28.73;18.48;;;8.80;99.90;;;;;;5073505;28;20021;-82
2021/12/14 08:48:40;;;;;;;29.05;19.02;;;8.80;99.90;;;;;;5086119;28;20028;-82
2021/12/14 08:51:15;;;;;;;27.83;18.40;;;8.80;99.90;;;;;;5093395;28;20167;-82
2021/12/14 08:53:52;;;;;;;29.48;20.83;;;8.80;99.90;;;;;;5091448;28;20024;-82
2021/12/14 08:56:19;;;;;;;28.52;18.55;;;8.80;99.90;;;;;;5078548;28;20051;-82
2021/12/14 08:58:46;;;;;;;30.95;20.75;;;8.80;99.90;;;;;;5085304;28;20029;-81
2021/12/14 09:01:18;;;;;;;30.42;20.30;;;8.80;99.90;;;;;;5063276;28;20090;-82
2021/12/14 09:03:57;;;;;;;33.72;20.38;;;8.90;99.90;;;;;;5083551;28;20525;-82
2021/12/14 09:06:29;;;;;;;32.85;19.73;;;8.80;99.90;;;;;;5091254;28;20021;-82
2021/12/14 09:08:59;;;;;;;32.00;20.60;;;8.90;99.90;;;;;;5088985;28;20020;-83
2021/12/14 09:11:28;;;;;;;36.10;20.45;;;8.90;99.90;;;;;;5086781;28;20033;-83
2021/12/14 09:13:53;;;;;;;30.90;20.33;;;8.90;99.90;;;;;;5064412;28;20029;-82
2021/12/14 09:16:25;;;;;;;34.20;21.30;;;9.00;99.90;;;;;;5090181;28;20028;-83
2021/12/14 09:18:57;;;;;;;32.47;21.17;;;8.90;99.90;;;;;;5080472;28;20115;-82
2021/12/14 09:21:30;;;;;;;34.28;21.38;;;8.90;99.90;;;;;;5071039;28;20477;-83
2021/12/14 09:24:00;;;;;;;31.58;20.65;;;9.00;99.90;;;;;;5071493;28;20063;-84
2021/12/14 09:26:31;;;;;;;34.40;21.73;;;9.00;99.90;;;;;;5076167;28;20210;-85
2021/12/14 09:28:57;;;;;;;33.05;21.75;;;9.00;99.90;;;;;;5108922;28;20067;-81
2021/12/14 09:31:26;;;;;;;33.38;21.38;;;9.00;99.90;;;;;;5075181;28;20090;-83
2021/12/14 09:33:57;;;;;;;35.75;22.80;;;9.00;99.90;;;;;;5074557;28;20128;-83
2021/12/14 09:36:22;;;;;;;34.30;21.50;;;9.10;99.90;;;;;;5074898;28;20024;-83
2021/12/14 09:38:52;;;;;;;38.88;24.50;;;9.10;99.90;;;;;;5108944;28;20025;-82
2021/12/14 09:41:21;;;;;;;37.78;23.77;;;9.10;99.90;;;;;;5074401;28;20554;-84
2021/12/14 09:43:49;;;;;;;37.90;23.80;;;9.10;99.90;;;;;;5082705;28;20404;-83
2021/12/14 09:46:17;;;;;;;38.92;23.95;;;9.10;99.90;;;;;;5074694;28;20035;-84
2021/12/14 09:48:53;;;;;;;38.00;24.63;;;9.10;99.90;;;;;;5086766;28;20028;-83
2021/12/14 09:51:25;;;;;;;38.15;23.92;;;9.10;99.90;;;;;;5096477;28;20043;-83
2021/12/14 09:53:54;;;;;;;37.63;24.17;;;9.10;99.90;;;;;;5087225;28;20016;-84
2021/12/14 09:56:23;;;;;;;39.70;25.02;;;9.20;99.90;;;;;;5083619;28;20016;-85
2021/12/14 09:58:58;;;;;;;38.83;23.88;;;9.20;99.90;;;;;;5082667;28;20028;-87
2021/12/14 10:01:38;;;;;;;40.75;24.55;;;9.20;99.90;;;;;;5084641;28;20059;-85
2021/12/14 10:04:09;;;;;;;39.95;25.02;;;9.20;99.90;;;;;;5086670;28;20021;-85
2021/12/14 10:06:35;;;;;;;39.40;24.42;;;9.30;99.90;;;;;;5091429;28;20032;-84
2021/12/14 10:09:10;;;;;;;41.90;25.20;;;9.20;99.90;;;;;;5077320;28;20086;-85
2021/12/14 10:14:24;;;;;;;42.13;25.48;;;9.30;99.90;;;;;;5075934;28;20041;-83
2021/12/14 10:16:50;;;;;;;40.95;24.25;;;9.30;99.90;;;;;;5074245;28;20021;-84
2021/12/14 10:19:20;;;;;;;42.72;25.25;;;9.30;99.90;;;;;;5074518;28;20021;-83
2021/12/14 10:21:51;;;;;;;41.70;25.25;;;9.30;99.90;;;;;;5074382;28;20119;-84
2021/12/14 10:24:17;;;;;;;42.95;25.50;;;9.30;99.90;;;;;;5080335;28;20396;-84
2021/12/14 10:26:52;;;;;;;40.22;24.00;;;9.30;99.90;;;;;;5094833;28;20036;-83
2021/12/14 10:29:18;;;;;;;43.95;27.17;;;9.30;99.90;;;;;;5095904;28;20464;-83
2021/12/14 10:32:03;;;;;;;46.20;27.38;;;9.30;99.90;;;;;;5094339;28;20037;-83
2021/12/14 10:34:35;;;;;;;42.53;25.40;;;9.30;99.90;;;;;;5094231;28;20043;-83
2021/12/14 10:37:13;;;;;;;42.83;25.35;;;9.40;99.90;;;;;;5094909;28;20020;-84
2021/12/14 10:42:53;;;;;;;43.92;26.95;;;9.40;99.90;;;;;;5096096;28;20422;-84
2021/12/14 10:45:23;;;;;;;40.80;25.30;;;9.40;99.90;;;;;;5112511;28;20030;-86
2021/12/14 10:47:49;;;;;;;41.72;26.30;;;9.40;99.90;;;;;;5117679;28;20089;-85
2021/12/14 10:50:19;;;;;;;42.55;26.33;;;9.50;99.90;;;;;;5119013;28;20066;-84
2021/12/14 10:52:45;;;;;;;41.45;25.67;;;9.50;99.90;;;;;;5118741;28;20569;-85
2021/12/14 10:55:22;;;;;;;44.20;27.65;;;9.50;99.90;;;;;;5118238;28;20016;-84
2021/12/14 10:57:47;;;;;;;43.53;26.30;;;9.50;99.90;;;;;;5119808;28;20040;-84
2021/12/14 11:00:43;;;;;;;40.03;26.08;;;9.50;99.90;;;;;;5115622;28;20050;-84
2021/12/14 11:03:15;;;;;;;41.78;26.25;;;9.50;99.90;;;;;;5106601;28;20028;-84
2021/12/14 11:05:45;;;;;;;42.13;26.05;;;9.60;99.90;;;;;;5097040;28;20020;-83
2021/12/14 11:08:21;;;;;;;41.50;25.92;;;9.60;99.90;;;;;;5080149;28;20036;-84
2021/12/14 11:10:47;;;;;;;41.47;26.38;;;9.60;99.90;;;;;;5078680;28;20028;-86
2021/12/14 11:13:14;;;;;;;47.75;27.55;;;9.60;99.90;;;;;;5088084;28;20044;-84
2021/12/14 11:15:44;;;;;;;42.33;24.75;;;9.70;99.90;;;;;;5092409;28;20036;-83
2021/12/14 11:18:18;;;;;;;46.50;26.63;;;9.70;99.90;;;;;;5078509;28;20025;-84
2021/12/14 11:20:53;;;;;;;47.15;28.58;;;9.70;99.90;;;;;;5088157;28;20385;-83
2021/12/14 11:23:32;;;;;;;46.97;27.40;;;9.70;99.90;;;;;;5087925;28;20460;-84
2021/12/14 11:26:09;;;;;;;45.63;27.20;;;9.70;99.90;;;;;;5093955;28;20043;-84
2021/12/14 11:28:57;;;;;;;43.60;27.13;;;9.70;99.90;;;;;;5087053;28;20016;-83
2021/12/14 11:31:36;;;;;;;47.95;28.40;;;9.80;99.90;;;;;;5092607;28;20544;-84
2021/12/14 11:34:27;;;;;;;47.08;27.95;;;9.80;99.90;;;;;;5088622;28;20506;-84
2021/12/14 11:36:56;;;;;;;45.20;28.55;;;9.80;99.90;;;;;;5072799;28;20025;-84
2021/12/14 11:39:28;;;;;;;45.60;28.10;;;9.80;99.90;;;;;;5073032;28;20055;-84
2021/12/14 11:41:59;;;;;;;46.20;28.08;;;9.80;99.90;;;;;;5072632;28;20028;-83
2021/12/14 11:44:28;;;;;;;48.93;29.07;;;9.80;99.90;;;;;;5074801;28;20056;-84
2021/12/14 11:50:11;;;;;;;46.65;29.65;;;9.80;99.90;;;;;;5094410;28;20066;-83
2021/12/14 11:52:50;;;;;;;51.20;29.08;;;9.90;99.90;;;;;;5092967;28;20031;-85
2021/12/14 11:55:19;;;;;;;51.88;30.33;;;9.90;99.90;;;;;;5091715;28;20020;-83
2021/12/14 11:57:45;;;;;;;49.83;30.95;;;9.90;99.90;;;;;;5086169;28;20024;-83
2021/12/14 12:00:19;;;;;;;46.38;31.38;;;9.90;99.90;;;;;;5094519;28;20086;-84
2021/12/14 12:02:45;;;;;;;53.95;31.63;;;9.90;99.90;;;;;;5081082;28;20029;-84
2021/12/14 12:05:21;;;;;;;52.42;31.77;;;10.00;99.90;;;;;;5102536;28;20024;-83
2021/12/14 12:10:49;;;;;;;55.88;32.67;;;10.00;99.90;;;;;;5090409;28;20120;-84
2021/12/14 12:13:15;;;;;;;48.17;29.65;;;10.00;99.90;;;;;;5087647;28;20028;-84
2021/12/14 12:15:43;;;;;;;51.70;31.92;;;10.00;99.90;;;;;;5095192;28;20025;-86
2021/12/14 12:18:10;;;;;;;51.03;31.65;;;10.00;99.90;;;;;;5071416;28;20123;-84
2021/12/14 12:20:41;;;;;;;59.13;33.42;;;10.00;99.90;;;;;;5071299;28;20032;-83
2021/12/14 12:23:13;;;;;;;56.03;32.75;;;10.00;99.90;;;;;;5072647;28;20039;-83
2021/12/14 12:25:44;;;;;;;58.58;32.17;;;10.10;99.90;;;;;;5073044;28;20052;-84
2021/12/14 12:28:33;;;;;;;55.17;32.83;;;10.10;99.90;;;;;;5105622;28;20033;-85
2021/12/14 12:31:12;;;;;;;52.38;31.63;;;10.10;99.90;;;;;;5071788;28;20024;-84
2021/12/14 12:33:42;;;;;;;56.63;32.72;;;10.10;99.90;;;;;;5105523;28;20017;-84
2021/12/14 12:36:29;;;;;;;54.05;30.63;;;10.20;99.90;;;;;;5106208;28;20025;-85
2021/12/14 12:39:05;;;;;;;60.20;34.00;;;10.10;99.90;;;;;;5107547;28;20078;-84
2021/12/14 12:41:56;;;;;;;53.58;31.65;;;10.10;99.90;;;;;;5106115;28;20059;-84
2021/12/14 12:44:22;;;;;;;58.60;33.42;;;10.10;99.90;;;;;;5106048;28;20066;-83
2021/12/14 12:46:57;;;;;;;56.25;32.55;;;10.10;99.90;;;;;;5073576;28;20028;-85
2021/12/14 12:49:28;;;;;;;57.50;31.52;;;10.20;99.90;;;;;;5072418;28;20357;-84
2021/12/14 12:51:59;;;;;;;52.70;32.15;;;10.10;99.90;;;;;;5105839;28;20384;-83
2021/12/14 12:54:31;;;;;;;52.30;32.10;;;10.10;99.90;;;;;;5073841;28;20028;-84
2021/12/14 12:57:17;;;;;;;56.67;31.77;;;10.20;99.90;;;;;;5105721;28;20029;-84
2021/12/14 13:00:09;;;;;;;56.50;31.70;;;10.20;99.90;;;;;;5110227;28;20372;-84
2021/12/14 13:02:46;;;;;;;57.90;32.55;;;10.20;99.90;;;;;;5110159;28;20083;-83
2021/12/14 13:05:21;;;;;;;59.95;33.30;;;10.20;99.90;;;;;;5076117;28;20107;-84
2021/12/14 13:07:52;;;;;;;62.10;34.35;;;10.20;99.90;;;;;;5109935;28;20496;-85
2021/12/14 13:10:24;;;;;;;57.40;31.92;;;10.20;99.90;;;;;;5097795;28;20057;-83
2021/12/14 13:13:08;;;;;;;59.58;33.92;;;10.20;99.90;;;;;;5102117;28;20024;-84
2021/12/14 13:15:55;;;;;;;61.35;34.53;;;10.20;99.90;;;;;;5100711;28;20085;-85
2021/12/14 13:18:29;;;;;;;61.70;34.65;;;10.20;99.90;;;;;;5098010;28;20020;-84
2021/12/14 13:21:01;;;;;;;63.22;34.95;;;10.20;99.90;;;;;;5096217;28;20149;-84
2021/12/14 13:23:46;;;;;;;62.90;34.13;;;10.20;99.90;;;;;;5096057;28;20203;-85
2021/12/14 13:26:43;;;;;;;61.75;34.22;;;10.20;99.90;;;;;;5097233;28;20024;-82
2021/12/14 13:29:12;;;;;;;69.10;36.75;;;10.20;99.90;;;;;;5060838;28;20028;-81
2021/12/14 13:31:43;;;;;;;64.90;35.65;;;10.20;99.90;;;;;;5096720;28;20034;-81
2021/12/14 13:34:11;;;;;;;;;;;10.20;99.90;;;;;;5096998;28;20086;-82
2021/12/14 13:36:38;;;;;;;70.70;34.97;;;10.20;99.90;;;;;;5095487;28;19908;-81
2021/12/14 13:39:07;;;;;;;70.68;34.67;;;10.20;99.90;;;;;;5097112;28;20024;-85
2021/12/14 13:41:59;;;;;;;77.30;36.60;;;10.20;99.90;;;;;;5097240;28;20043;-84
2021/12/14 13:44:50;;;;;;;67.65;34.28;;;10.20;99.90;;;;;;5057126;28;20120;-84
2021/12/14 13:47:19;;;;;;;72.35;35.97;;;10.20;99.90;;;;;;5095851;28;20055;-84
2021/12/14 13:49:45;;;;;;;68.78;35.45;;;10.20;99.90;;;;;;5096823;28;20444;-84